sensor_id;sensor_type;location;lat;lon;timestamp;temperature;humidity
32217;DHT22;67098;51.140;4.088;2023-07-02T00:00:03;20.60;88.70
32217;DHT22;67098;51.140;4.088;2023-07-02T00:02:30;20.60;89.00
32217;DHT22;67098;51.140;4.088;2023-07-02T00:04:56;20.60;88.70
32217;DHT22;67098;51.140;4.088;2023-07-02T00:07:22;20.60;89.10
32217;DHT22;67098;51.140;4.088;2023-07-02T00:09:48;20.60;89.20
32217;DHT22;67098;51.140;4.088;2023-07-02T00:12:14;20.60;89.40
32217;DHT22;67098;51.140;4.088;2023-07-02T00:14:40;20.70;88.70
32217;DHT22;67098;51.140;4.088;2023-07-02T00:17:05;20.70;88.30
32217;DHT22;67098;51.140;4.088;2023-07-02T00:19:31;20.80;88.20
32217;DHT22;67098;51.140;4.088;2023-07-02T00:21:58;20.70;88.50
32217;DHT22;67098;51.140;4.088;2023-07-02T00:24:23;20.60;88.80
32217;DHT22;67098;51.140;4.088;2023-07-02T00:26:49;20.50;89.10
32217;DHT22;67098;51.140;4.088;2023-07-02T00:29:15;20.40;89.50
32217;DHT22;67098;51.140;4.088;2023-07-02T00:31:41;20.40;89.90
32217;DHT22;67098;51.140;4.088;2023-07-02T00:34:07;20.30;90.00
32217;DHT22;67098;51.140;4.088;2023-07-02T00:36:32;20.30;90.30
32217;DHT22;67098;51.140;4.088;2023-07-02T00:38:59;20.40;90.00
32217;DHT22;67098;51.140;4.088;2023-07-02T00:41:25;20.40;90.00
32217;DHT22;67098;51.140;4.088;2023-07-02T00:43:51;20.50;90.00
32217;DHT22;67098;51.140;4.088;2023-07-02T00:46:21;20.60;89.30
32217;DHT22;67098;51.140;4.088;2023-07-02T00:48:51;20.60;89.10
32217;DHT22;67098;51.140;4.088;2023-07-02T00:51:19;20.50;89.80
32217;DHT22;67098;51.140;4.088;2023-07-02T00:53:46;20.50;89.70
32217;DHT22;67098;51.140;4.088;2023-07-02T00:56:13;20.40;90.00
32217;DHT22;67098;51.140;4.088;2023-07-02T00:58:43;20.40;90.20
32217;DHT22;67098;51.140;4.088;2023-07-02T01:01:20;20.30;90.30
32217;DHT22;67098;51.140;4.088;2023-07-02T01:03:58;20.20;90.50
32217;DHT22;67098;51.140;4.088;2023-07-02T01:06:32;20.20;90.50
32217;DHT22;67098;51.140;4.088;2023-07-02T01:09:01;20.20;90.70
32217;DHT22;67098;51.140;4.088;2023-07-02T01:11:40;20.10;90.80
32217;DHT22;67098;51.140;4.088;2023-07-02T01:14:10;20.10;90.80
32217;DHT22;67098;51.140;4.088;2023-07-02T01:16:37;20.00;90.90
32217;DHT22;67098;51.140;4.088;2023-07-02T01:19:06;20.10;91.10
32217;DHT22;67098;51.140;4.088;2023-07-02T01:21:36;20.10;90.90
32217;DHT22;67098;51.140;4.088;2023-07-02T01:24:03;20.10;90.90
32217;DHT22;67098;51.140;4.088;2023-07-02T01:26:30;20.10;91.00
32217;DHT22;67098;51.140;4.088;2023-07-02T01:29:00;20.20;91.00
32217;DHT22;67098;51.140;4.088;2023-07-02T01:31:26;20.30;90.90
32217;DHT22;67098;51.140;4.088;2023-07-02T01:33:51;20.30;90.90
32217;DHT22;67098;51.140;4.088;2023-07-02T01:36:18;20.30;90.80
32217;DHT22;67098;51.140;4.088;2023-07-02T01:38:43;20.30;90.80
32217;DHT22;67098;51.140;4.088;2023-07-02T01:41:09;20.50;90.50
32217;DHT22;67098;51.140;4.088;2023-07-02T01:43:35;20.60;90.30
32217;DHT22;67098;51.140;4.088;2023-07-02T01:46:00;20.50;90.50
32217;DHT22;67098;51.140;4.088;2023-07-02T01:48:27;20.40;90.60
32217;DHT22;67098;51.140;4.088;2023-07-02T01:50:53;20.50;90.30
32217;DHT22;67098;51.140;4.088;2023-07-02T01:53:18;20.50;90.40
32217;DHT22;67098;51.140;4.088;2023-07-02T01:55:44;20.40;90.70
32217;DHT22;67098;51.140;4.088;2023-07-02T01:58:10;20.30;90.70
32217;DHT22;67098;51.140;4.088;2023-07-02T02:00:36;20.40;90.60
32217;DHT22;67098;51.140;4.088;2023-07-02T02:03:02;20.40;90.80
32217;DHT22;67098;51.140;4.088;2023-07-02T02:05:27;20.40;90.60
32217;DHT22;67098;51.140;4.088;2023-07-02T02:07:53;20.40;90.80
32217;DHT22;67098;51.140;4.088;2023-07-02T02:10:19;20.30;90.80
32217;DHT22;67098;51.140;4.088;2023-07-02T02:12:45;20.40;90.50
32217;DHT22;67098;51.140;4.088;2023-07-02T02:15:10;20.40;90.50
32217;DHT22;67098;51.140;4.088;2023-07-02T02:17:39;20.50;90.50
32217;DHT22;67098;51.140;4.088;2023-07-02T02:20:06;20.40;90.70
32217;DHT22;67098;51.140;4.088;2023-07-02T02:22:32;20.40;90.80
32217;DHT22;67098;51.140;4.088;2023-07-02T02:24:58;20.40;91.00
32217;DHT22;67098;51.140;4.088;2023-07-02T02:27:24;20.30;91.10
32217;DHT22;67098;51.140;4.088;2023-07-02T02:29:49;20.40;91.00
32217;DHT22;67098;51.140;4.088;2023-07-02T02:32:15;20.50;91.10
32217;DHT22;67098;51.140;4.088;2023-07-02T02:34:45;20.50;90.90
32217;DHT22;67098;51.140;4.088;2023-07-02T02:37:10;20.50;90.90
32217;DHT22;67098;51.140;4.088;2023-07-02T02:39:36;20.60;90.70
32217;DHT22;67098;51.140;4.088;2023-07-02T02:42:02;20.60;90.60
32217;DHT22;67098;51.140;4.088;2023-07-02T02:44:28;20.60;90.60
32217;DHT22;67098;51.140;4.088;2023-07-02T02:46:55;20.50;90.70
32217;DHT22;67098;51.140;4.088;2023-07-02T02:49:20;20.50;90.80
32217;DHT22;67098;51.140;4.088;2023-07-02T02:51:46;20.50;90.70
32217;DHT22;67098;51.140;4.088;2023-07-02T02:54:12;20.50;90.70
32217;DHT22;67098;51.140;4.088;2023-07-02T02:56:38;20.60;90.50
32217;DHT22;67098;51.140;4.088;2023-07-02T02:59:03;20.60;90.50
32217;DHT22;67098;51.140;4.088;2023-07-02T03:01:29;20.60;90.40
32217;DHT22;67098;51.140;4.088;2023-07-02T03:03:58;20.50;90.60
32217;DHT22;67098;51.140;4.088;2023-07-02T03:06:24;20.50;90.80
32217;DHT22;67098;51.140;4.088;2023-07-02T03:08:49;20.50;90.70
32217;DHT22;67098;51.140;4.088;2023-07-02T03:11:15;20.50;90.70
32217;DHT22;67098;51.140;4.088;2023-07-02T03:13:41;20.40;90.90
32217;DHT22;67098;51.140;4.088;2023-07-02T03:16:06;20.40;91.00
32217;DHT22;67098;51.140;4.088;2023-07-02T03:18:32;20.30;91.00
32217;DHT22;67098;51.140;4.088;2023-07-02T03:20:59;20.20;91.20
32217;DHT22;67098;51.140;4.088;2023-07-02T03:23:25;20.20;91.20
32217;DHT22;67098;51.140;4.088;2023-07-02T03:25:50;20.20;91.30
32217;DHT22;67098;51.140;4.088;2023-07-02T03:28:16;20.00;91.50
32217;DHT22;67098;51.140;4.088;2023-07-02T03:30:42;20.10;91.50
32217;DHT22;67098;51.140;4.088;2023-07-02T03:33:09;20.10;91.50
32217;DHT22;67098;51.140;4.088;2023-07-02T03:35:35;20.10;91.60
32217;DHT22;67098;51.140;4.088;2023-07-02T03:38:02;20.10;91.50
32217;DHT22;67098;51.140;4.088;2023-07-02T03:40:27;20.20;91.50
32217;DHT22;67098;51.140;4.088;2023-07-02T03:42:53;20.20;91.50
32217;DHT22;67098;51.140;4.088;2023-07-02T03:45:19;20.10;91.50
32217;DHT22;67098;51.140;4.088;2023-07-02T03:47:44;20.20;91.50
32217;DHT22;67098;51.140;4.088;2023-07-02T03:50:10;20.20;91.50
32217;DHT22;67098;51.140;4.088;2023-07-02T03:52:36;20.20;91.70
32217;DHT22;67098;51.140;4.088;2023-07-02T03:55:02;20.20;91.60
32217;DHT22;67098;51.140;4.088;2023-07-02T03:57:28;20.20;91.60
32217;DHT22;67098;51.140;4.088;2023-07-02T03:59:54;20.30;91.50
32217;DHT22;67098;51.140;4.088;2023-07-02T04:02:19;20.30;91.60
32217;DHT22;67098;51.140;4.088;2023-07-02T04:04:45;20.30;91.50
32217;DHT22;67098;51.140;4.088;2023-07-02T04:07:11;20.30;91.40
32217;DHT22;67098;51.140;4.088;2023-07-02T04:09:37;20.30;91.40
32217;DHT22;67098;51.140;4.088;2023-07-02T04:12:03;20.20;91.40
32217;DHT22;67098;51.140;4.088;2023-07-02T04:14:29;20.20;91.40
32217;DHT22;67098;51.140;4.088;2023-07-02T04:16:54;20.30;91.40
32217;DHT22;67098;51.140;4.088;2023-07-02T04:19:20;20.30;91.30
32217;DHT22;67098;51.140;4.088;2023-07-02T04:21:46;20.20;91.30
32217;DHT22;67098;51.140;4.088;2023-07-02T04:24:12;20.30;91.10
32217;DHT22;67098;51.140;4.088;2023-07-02T04:26:38;20.40;91.20
32217;DHT22;67098;51.140;4.088;2023-07-02T04:29:11;20.40;91.20
32217;DHT22;67098;51.140;4.088;2023-07-02T04:31:37;20.40;91.10
32217;DHT22;67098;51.140;4.088;2023-07-02T04:34:03;20.40;91.10
32217;DHT22;67098;51.140;4.088;2023-07-02T04:36:28;20.40;91.10
32217;DHT22;67098;51.140;4.088;2023-07-02T04:38:54;20.50;91.00
32217;DHT22;67098;51.140;4.088;2023-07-02T04:41:20;20.50;91.00
32217;DHT22;67098;51.140;4.088;2023-07-02T04:43:46;20.50;90.90
32217;DHT22;67098;51.140;4.088;2023-07-02T04:46:12;20.50;91.10
32217;DHT22;67098;51.140;4.088;2023-07-02T04:48:38;20.60;91.00
32217;DHT22;67098;51.140;4.088;2023-07-02T04:51:04;20.50;91.00
32217;DHT22;67098;51.140;4.088;2023-07-02T04:53:30;20.50;90.90
32217;DHT22;67098;51.140;4.088;2023-07-02T04:55:55;20.60;91.00
32217;DHT22;67098;51.140;4.088;2023-07-02T04:58:24;20.50;90.90
32217;DHT22;67098;51.140;4.088;2023-07-02T05:00:50;20.50;91.00
32217;DHT22;67098;51.140;4.088;2023-07-02T05:03:16;20.50;90.90
32217;DHT22;67098;51.140;4.088;2023-07-02T05:05:41;20.60;91.00
32217;DHT22;67098;51.140;4.088;2023-07-02T05:08:07;20.50;91.00
32217;DHT22;67098;51.140;4.088;2023-07-02T05:10:33;20.50;91.00
32217;DHT22;67098;51.140;4.088;2023-07-02T05:12:58;20.50;91.10
32217;DHT22;67098;51.140;4.088;2023-07-02T05:15:24;20.50;91.20
32217;DHT22;67098;51.140;4.088;2023-07-02T05:17:50;20.70;90.90
32217;DHT22;67098;51.140;4.088;2023-07-02T05:20:16;20.70;90.80
32217;DHT22;67098;51.140;4.088;2023-07-02T05:22:42;20.60;90.70
32217;DHT22;67098;51.140;4.088;2023-07-02T05:25:08;20.60;90.90
32217;DHT22;67098;51.140;4.088;2023-07-02T05:27:34;20.70;90.70
32217;DHT22;67098;51.140;4.088;2023-07-02T05:29:59;20.80;90.70
32217;DHT22;67098;51.140;4.088;2023-07-02T05:32:25;20.70;90.70
32217;DHT22;67098;51.140;4.088;2023-07-02T05:34:51;20.80;90.60
32217;DHT22;67098;51.140;4.088;2023-07-02T05:37:17;20.90;90.40
32217;DHT22;67098;51.140;4.088;2023-07-02T05:39:43;21.00;90.30
32217;DHT22;67098;51.140;4.088;2023-07-02T05:42:09;21.00;90.20
32217;DHT22;67098;51.140;4.088;2023-07-02T05:44:35;21.00;90.10
32217;DHT22;67098;51.140;4.088;2023-07-02T05:47:00;21.00;90.00
32217;DHT22;67098;51.140;4.088;2023-07-02T05:49:26;20.90;90.30
32217;DHT22;67098;51.140;4.088;2023-07-02T05:51:52;20.70;90.00
32217;DHT22;67098;51.140;4.088;2023-07-02T05:54:18;20.70;89.50
32217;DHT22;67098;51.140;4.088;2023-07-02T05:56:44;20.80;89.40
32217;DHT22;67098;51.140;4.088;2023-07-02T05:59:09;20.80;89.70
32217;DHT22;67098;51.140;4.088;2023-07-02T06:01:36;20.80;89.30
32217;DHT22;67098;51.140;4.088;2023-07-02T06:04:02;20.70;88.10
32217;DHT22;67098;51.140;4.088;2023-07-02T06:06:28;20.90;87.70
32217;DHT22;67098;51.140;4.088;2023-07-02T06:08:54;20.70;87.00
32217;DHT22;67098;51.140;4.088;2023-07-02T06:11:19;20.80;85.50
32217;DHT22;67098;51.140;4.088;2023-07-02T06:13:45;20.80;84.70
32217;DHT22;67098;51.140;4.088;2023-07-02T06:16:11;20.90;83.20
32217;DHT22;67098;51.140;4.088;2023-07-02T06:18:36;20.90;82.80
32217;DHT22;67098;51.140;4.088;2023-07-02T06:21:02;20.90;81.10
32217;DHT22;67098;51.140;4.088;2023-07-02T06:23:30;20.90;81.40
32217;DHT22;67098;51.140;4.088;2023-07-02T06:26:04;20.90;80.80
32217;DHT22;67098;51.140;4.088;2023-07-02T06:28:30;21.00;79.20
32217;DHT22;67098;51.140;4.088;2023-07-02T06:30:56;21.00;78.10
32217;DHT22;67098;51.140;4.088;2023-07-02T06:33:22;21.00;78.00
32217;DHT22;67098;51.140;4.088;2023-07-02T06:35:48;21.10;77.50
32217;DHT22;67098;51.140;4.088;2023-07-02T06:38:15;21.20;77.20
32217;DHT22;67098;51.140;4.088;2023-07-02T06:40:41;21.30;76.30
32217;DHT22;67098;51.140;4.088;2023-07-02T06:43:07;21.50;75.70
32217;DHT22;67098;51.140;4.088;2023-07-02T06:45:32;21.70;75.20
32217;DHT22;67098;51.140;4.088;2023-07-02T06:47:59;21.80;74.70
32217;DHT22;67098;51.140;4.088;2023-07-02T06:50:25;21.90;73.00
32217;DHT22;67098;51.140;4.088;2023-07-02T06:52:50;21.80;72.60
32217;DHT22;67098;51.140;4.088;2023-07-02T06:55:16;22.00;72.80
32217;DHT22;67098;51.140;4.088;2023-07-02T06:57:43;22.10;72.70
32217;DHT22;67098;51.140;4.088;2023-07-02T07:00:11;22.20;72.10
32217;DHT22;67098;51.140;4.088;2023-07-02T07:02:37;22.30;71.50
32217;DHT22;67098;51.140;4.088;2023-07-02T07:05:03;22.40;70.50
32217;DHT22;67098;51.140;4.088;2023-07-02T07:07:29;22.50;70.40
32217;DHT22;67098;51.140;4.088;2023-07-02T07:09:55;22.60;70.30
32217;DHT22;67098;51.140;4.088;2023-07-02T07:12:21;22.70;70.10
32217;DHT22;67098;51.140;4.088;2023-07-02T07:14:47;22.80;69.20
32217;DHT22;67098;51.140;4.088;2023-07-02T07:17:12;22.80;69.60
32217;DHT22;67098;51.140;4.088;2023-07-02T07:19:38;23.10;70.00
32217;DHT22;67098;51.140;4.088;2023-07-02T07:22:04;23.30;70.60
32217;DHT22;67098;51.140;4.088;2023-07-02T07:24:29;23.40;69.20
32217;DHT22;67098;51.140;4.088;2023-07-02T07:26:55;23.70;70.20
32217;DHT22;67098;51.140;4.088;2023-07-02T07:29:22;24.00;68.80
32217;DHT22;67098;51.140;4.088;2023-07-02T07:31:47;24.20;67.90
32217;DHT22;67098;51.140;4.088;2023-07-02T07:34:13;24.20;66.50
32217;DHT22;67098;51.140;4.088;2023-07-02T07:36:39;24.30;65.50
32217;DHT22;67098;51.140;4.088;2023-07-02T07:39:05;24.40;65.90
32217;DHT22;67098;51.140;4.088;2023-07-02T07:41:31;24.50;65.40
32217;DHT22;67098;51.140;4.088;2023-07-02T07:43:58;24.50;64.20
32217;DHT22;67098;51.140;4.088;2023-07-02T07:46:23;24.60;64.30
32217;DHT22;67098;51.140;4.088;2023-07-02T07:48:49;24.70;63.10
32217;DHT22;67098;51.140;4.088;2023-07-02T07:51:15;24.80;62.00
32217;DHT22;67098;51.140;4.088;2023-07-02T07:53:40;25.10;62.40
32217;DHT22;67098;51.140;4.088;2023-07-02T07:56:06;25.30;61.90
32217;DHT22;67098;51.140;4.088;2023-07-02T07:58:32;25.30;61.10
32217;DHT22;67098;51.140;4.088;2023-07-02T08:00:58;25.20;60.60
32217;DHT22;67098;51.140;4.088;2023-07-02T08:03:24;24.90;60.30
32217;DHT22;67098;51.140;4.088;2023-07-02T08:05:49;24.70;60.30
32217;DHT22;67098;51.140;4.088;2023-07-02T08:08:15;24.50;61.60
32217;DHT22;67098;51.140;4.088;2023-07-02T08:10:41;24.40;62.40
32217;DHT22;67098;51.140;4.088;2023-07-02T08:13:08;24.30;62.00
32217;DHT22;67098;51.140;4.088;2023-07-02T08:15:34;24.30;62.60
32217;DHT22;67098;51.140;4.088;2023-07-02T08:17:59;24.50;62.40
32217;DHT22;67098;51.140;4.088;2023-07-02T08:20:25;24.50;62.60
32217;DHT22;67098;51.140;4.088;2023-07-02T08:22:51;24.70;62.40
32217;DHT22;67098;51.140;4.088;2023-07-02T08:25:17;25.10;62.10
32217;DHT22;67098;51.140;4.088;2023-07-02T08:27:44;25.50;60.80
32217;DHT22;67098;51.140;4.088;2023-07-02T08:30:10;25.90;60.30
32217;DHT22;67098;51.140;4.088;2023-07-02T08:32:36;26.30;59.00
32217;DHT22;67098;51.140;4.088;2023-07-02T08:35:01;26.20;58.60
32217;DHT22;67098;51.140;4.088;2023-07-02T08:37:27;26.30;59.00
32217;DHT22;67098;51.140;4.088;2023-07-02T08:39:53;26.50;59.40
32217;DHT22;67098;51.140;4.088;2023-07-02T08:42:19;26.80;59.00
32217;DHT22;67098;51.140;4.088;2023-07-02T08:44:53;27.00;59.10
32217;DHT22;67098;51.140;4.088;2023-07-02T08:47:19;27.00;58.40
32217;DHT22;67098;51.140;4.088;2023-07-02T08:49:48;26.60;58.00
32217;DHT22;67098;51.140;4.088;2023-07-02T08:52:13;26.50;57.70
32217;DHT22;67098;51.140;4.088;2023-07-02T08:54:39;26.20;58.30
32217;DHT22;67098;51.140;4.088;2023-07-02T08:57:05;26.00;58.90
32217;DHT22;67098;51.140;4.088;2023-07-02T08:59:31;25.70;59.70
32217;DHT22;67098;51.140;4.088;2023-07-02T09:01:57;25.60;60.60
32217;DHT22;67098;51.140;4.088;2023-07-02T09:04:24;25.90;60.60
32217;DHT22;67098;51.140;4.088;2023-07-02T09:07:07;26.00;60.40
32217;DHT22;67098;51.140;4.088;2023-07-02T09:09:43;26.10;59.70
32217;DHT22;67098;51.140;4.088;2023-07-02T09:12:10;26.10;59.60
32217;DHT22;67098;51.140;4.088;2023-07-02T09:14:36;25.80;60.20
32217;DHT22;67098;51.140;4.088;2023-07-02T09:17:03;25.60;60.70
32217;DHT22;67098;51.140;4.088;2023-07-02T09:19:29;25.70;61.40
32217;DHT22;67098;51.140;4.088;2023-07-02T09:21:57;25.80;61.50
32217;DHT22;67098;51.140;4.088;2023-07-02T09:24:25;26.10;61.30
32217;DHT22;67098;51.140;4.088;2023-07-02T09:26:53;26.20;60.10
32217;DHT22;67098;51.140;4.088;2023-07-02T09:31:59;26.00;60.30
32217;DHT22;67098;51.140;4.088;2023-07-02T09:34:32;25.70;59.60
32217;DHT22;67098;51.140;4.088;2023-07-02T09:36:59;25.30;58.60
32217;DHT22;67098;51.140;4.088;2023-07-02T09:39:29;25.00;58.30
32217;DHT22;67098;51.140;4.088;2023-07-02T09:41:56;24.80;58.60
32217;DHT22;67098;51.140;4.088;2023-07-02T09:44:28;24.90;59.30
32217;DHT22;67098;51.140;4.088;2023-07-02T09:47:06;25.10;59.80
32217;DHT22;67098;51.140;4.088;2023-07-02T09:50:03;26.00;59.00
32217;DHT22;67098;51.140;4.088;2023-07-02T09:52:32;26.80;58.00
32217;DHT22;67098;51.140;4.088;2023-07-02T09:54:58;27.10;56.40
32217;DHT22;67098;51.140;4.088;2023-07-02T09:57:24;26.80;56.30
32217;DHT22;67098;51.140;4.088;2023-07-02T09:59:50;26.50;56.00
32217;DHT22;67098;51.140;4.088;2023-07-02T10:02:16;26.20;56.80
32217;DHT22;67098;51.140;4.088;2023-07-02T10:04:47;26.10;57.40
32217;DHT22;67098;51.140;4.088;2023-07-02T10:07:24;26.40;57.30
32217;DHT22;67098;51.140;4.088;2023-07-02T10:09:51;26.50;55.10
32217;DHT22;67098;51.140;4.088;2023-07-02T10:12:24;26.20;55.00
32217;DHT22;67098;51.140;4.088;2023-07-02T10:14:52;26.40;53.40
32217;DHT22;67098;51.140;4.088;2023-07-02T10:17:27;26.40;53.10
32217;DHT22;67098;51.140;4.088;2023-07-02T10:20:01;26.50;52.70
32217;DHT22;67098;51.140;4.088;2023-07-02T10:22:43;26.50;52.30
32217;DHT22;67098;51.140;4.088;2023-07-02T10:25:09;26.10;52.40
32217;DHT22;67098;51.140;4.088;2023-07-02T10:27:39;25.90;52.60
32217;DHT22;67098;51.140;4.088;2023-07-02T10:30:07;25.70;53.60
32217;DHT22;67098;51.140;4.088;2023-07-02T10:32:34;25.60;52.60
32217;DHT22;67098;51.140;4.088;2023-07-02T10:35:17;25.30;53.10
32217;DHT22;67098;51.140;4.088;2023-07-02T10:37:43;25.10;54.10
32217;DHT22;67098;51.140;4.088;2023-07-02T10:40:11;25.00;54.00
32217;DHT22;67098;51.140;4.088;2023-07-02T10:42:51;24.90;54.80
32217;DHT22;67098;51.140;4.088;2023-07-02T10:45:18;24.90;55.00
32217;DHT22;67098;51.140;4.088;2023-07-02T10:47:44;24.90;55.20
32217;DHT22;67098;51.140;4.088;2023-07-02T10:50:19;24.90;54.90
32217;DHT22;67098;51.140;4.088;2023-07-02T10:52:46;25.70;54.60
32217;DHT22;67098;51.140;4.088;2023-07-02T10:55:23;27.10;53.50
32217;DHT22;67098;51.140;4.088;2023-07-02T10:57:50;27.80;51.30
32217;DHT22;67098;51.140;4.088;2023-07-02T11:00:19;27.50;49.70
32217;DHT22;67098;51.140;4.088;2023-07-02T11:02:45;27.20;50.30
32217;DHT22;67098;51.140;4.088;2023-07-02T11:05:11;26.70;51.00
32217;DHT22;67098;51.140;4.088;2023-07-02T11:07:41;26.30;52.00
32217;DHT22;67098;51.140;4.088;2023-07-02T11:10:07;26.30;52.20
32217;DHT22;67098;51.140;4.088;2023-07-02T11:12:34;26.30;52.20
32217;DHT22;67098;51.140;4.088;2023-07-02T11:15:14;26.30;52.10
32217;DHT22;67098;51.140;4.088;2023-07-02T11:17:40;26.90;52.10
32217;DHT22;67098;51.140;4.088;2023-07-02T11:20:12;26.80;51.60
32217;DHT22;67098;51.140;4.088;2023-07-02T11:22:38;27.30;51.30
32217;DHT22;67098;51.140;4.088;2023-07-02T11:25:16;27.20;50.50
32217;DHT22;67098;51.140;4.088;2023-07-02T11:27:43;27.10;51.20
32217;DHT22;67098;51.140;4.088;2023-07-02T11:30:09;26.70;50.40
32217;DHT22;67098;51.140;4.088;2023-07-02T11:32:47;26.40;50.90
32217;DHT22;67098;51.140;4.088;2023-07-02T11:35:14;26.80;51.60
32217;DHT22;67098;51.140;4.088;2023-07-02T11:37:41;27.70;50.30
32217;DHT22;67098;51.140;4.088;2023-07-02T11:40:08;28.40;49.20
32217;DHT22;67098;51.140;4.088;2023-07-02T11:42:34;29.00;48.20
32217;DHT22;67098;51.140;4.088;2023-07-02T11:44:59;29.40;47.80
32217;DHT22;67098;51.140;4.088;2023-07-02T11:47:25;29.50;47.90
32217;DHT22;67098;51.140;4.088;2023-07-02T11:49:53;29.20;47.80
32217;DHT22;67098;51.140;4.088;2023-07-02T11:52:20;28.70;47.80
32217;DHT22;67098;51.140;4.088;2023-07-02T11:54:46;28.30;48.40
32217;DHT22;67098;51.140;4.088;2023-07-02T11:57:12;28.30;48.80
32217;DHT22;67098;51.140;4.088;2023-07-02T11:59:38;28.10;48.80
32217;DHT22;67098;51.140;4.088;2023-07-02T12:02:04;28.40;48.70
32217;DHT22;67098;51.140;4.088;2023-07-02T12:04:30;28.80;47.40
32217;DHT22;67098;51.140;4.088;2023-07-02T12:06:55;29.10;46.50
32217;DHT22;67098;51.140;4.088;2023-07-02T12:09:21;29.60;46.50
32217;DHT22;67098;51.140;4.088;2023-07-02T12:11:47;30.30;46.20
32217;DHT22;67098;51.140;4.088;2023-07-02T12:14:13;30.10;45.60
32217;DHT22;67098;51.140;4.088;2023-07-02T12:16:39;29.60;46.00
32217;DHT22;67098;51.140;4.088;2023-07-02T12:19:04;29.70;46.30
32217;DHT22;67098;51.140;4.088;2023-07-02T12:21:30;30.30;45.80
32217;DHT22;67098;51.140;4.088;2023-07-02T12:23:57;30.70;45.30
32217;DHT22;67098;51.140;4.088;2023-07-02T12:26:22;31.50;45.60
32217;DHT22;67098;51.140;4.088;2023-07-02T12:28:48;31.70;43.50
32217;DHT22;67098;51.140;4.088;2023-07-02T12:31:14;32.00;43.70
32217;DHT22;67098;51.140;4.088;2023-07-02T12:33:40;31.90;44.00
32217;DHT22;67098;51.140;4.088;2023-07-02T12:36:05;31.30;43.90
32217;DHT22;67098;51.140;4.088;2023-07-02T12:38:31;31.20;44.20
32217;DHT22;67098;51.140;4.088;2023-07-02T12:40:57;31.10;44.10
32217;DHT22;67098;51.140;4.088;2023-07-02T12:43:23;31.40;43.90
32217;DHT22;67098;51.140;4.088;2023-07-02T12:45:49;31.70;43.50
32217;DHT22;67098;51.140;4.088;2023-07-02T12:48:15;32.10;42.80
32217;DHT22;67098;51.140;4.088;2023-07-02T12:50:41;32.90;42.60
32217;DHT22;67098;51.140;4.088;2023-07-02T12:53:06;33.00;42.00
32217;DHT22;67098;51.140;4.088;2023-07-02T12:55:32;33.20;42.30
32217;DHT22;67098;51.140;4.088;2023-07-02T12:57:58;33.70;42.20
32217;DHT22;67098;51.140;4.088;2023-07-02T13:00:23;34.40;42.10
32217;DHT22;67098;51.140;4.088;2023-07-02T13:02:49;34.90;41.00
32217;DHT22;67098;51.140;4.088;2023-07-02T13:05:15;34.70;40.50
32217;DHT22;67098;51.140;4.088;2023-07-02T13:07:41;34.30;40.20
32217;DHT22;67098;51.140;4.088;2023-07-02T13:10:07;33.20;40.50
32217;DHT22;67098;51.140;4.088;2023-07-02T13:12:32;32.60;41.90
32217;DHT22;67098;51.140;4.088;2023-07-02T13:14:58;33.30;41.90
32217;DHT22;67098;51.140;4.088;2023-07-02T13:17:24;34.10;41.30
32217;DHT22;67098;51.140;4.088;2023-07-02T13:19:50;34.60;41.00
32217;DHT22;67098;51.140;4.088;2023-07-02T13:22:16;34.50;40.90
32217;DHT22;67098;51.140;4.088;2023-07-02T13:24:42;34.70;40.60
32217;DHT22;67098;51.140;4.088;2023-07-02T13:27:15;34.30;40.00
32217;DHT22;67098;51.140;4.088;2023-07-02T13:29:42;33.50;40.60
32217;DHT22;67098;51.140;4.088;2023-07-02T13:32:08;32.80;41.40
32217;DHT22;67098;51.140;4.088;2023-07-02T13:34:34;32.90;41.50
32217;DHT22;67098;51.140;4.088;2023-07-02T13:36:59;32.80;42.00
32217;DHT22;67098;51.140;4.088;2023-07-02T13:39:28;33.60;41.60
32217;DHT22;67098;51.140;4.088;2023-07-02T13:41:54;34.20;40.90
32217;DHT22;67098;51.140;4.088;2023-07-02T13:44:20;34.10;40.10
32217;DHT22;67098;51.140;4.088;2023-07-02T13:46:47;33.60;40.00
32217;DHT22;67098;51.140;4.088;2023-07-02T13:49:13;33.40;40.20
32217;DHT22;67098;51.140;4.088;2023-07-02T13:51:39;33.30;41.10
32217;DHT22;67098;51.140;4.088;2023-07-02T13:54:04;33.40;40.80
32217;DHT22;67098;51.140;4.088;2023-07-02T13:56:30;34.10;40.40
32217;DHT22;67098;51.140;4.088;2023-07-02T14:01:22;34.60;39.30
32217;DHT22;67098;51.140;4.088;2023-07-02T14:03:48;34.70;39.30
32217;DHT22;67098;51.140;4.088;2023-07-02T14:06:14;34.20;39.70
32217;DHT22;67098;51.140;4.088;2023-07-02T14:08:41;33.90;40.10
32217;DHT22;67098;51.140;4.088;2023-07-02T14:11:07;34.40;39.80
32217;DHT22;67098;51.140;4.088;2023-07-02T14:13:33;34.00;39.60
32217;DHT22;67098;51.140;4.088;2023-07-02T14:15:59;33.50;39.30
32217;DHT22;67098;51.140;4.088;2023-07-02T14:18:25;32.80;40.30
32217;DHT22;67098;51.140;4.088;2023-07-02T14:20:51;32.00;41.20
32217;DHT22;67098;51.140;4.088;2023-07-02T14:23:17;31.40;41.60
32217;DHT22;67098;51.140;4.088;2023-07-02T14:25:43;31.50;42.20
32217;DHT22;67098;51.140;4.088;2023-07-02T14:28:09;31.20;42.10
32217;DHT22;67098;51.140;4.088;2023-07-02T14:30:34;31.00;42.30
32217;DHT22;67098;51.140;4.088;2023-07-02T14:33:00;30.70;42.30
32217;DHT22;67098;51.140;4.088;2023-07-02T14:35:26;31.10;42.40
32217;DHT22;67098;51.140;4.088;2023-07-02T14:37:54;30.90;42.80
32217;DHT22;67098;51.140;4.088;2023-07-02T14:40:20;30.70;42.70
32217;DHT22;67098;51.140;4.088;2023-07-02T14:42:46;30.70;42.30
32217;DHT22;67098;51.140;4.088;2023-07-02T14:45:11;30.00;42.10
32217;DHT22;67098;51.140;4.088;2023-07-02T14:47:37;29.30;43.10
32217;DHT22;67098;51.140;4.088;2023-07-02T14:50:04;29.30;43.80
32217;DHT22;67098;51.140;4.088;2023-07-02T14:52:30;29.50;43.30
32217;DHT22;67098;51.140;4.088;2023-07-02T14:54:56;29.50;43.20
32217;DHT22;67098;51.140;4.088;2023-07-02T14:57:25;29.80;43.30
32217;DHT22;67098;51.140;4.088;2023-07-02T14:59:51;29.80;43.20
32217;DHT22;67098;51.140;4.088;2023-07-02T15:02:17;29.50;43.20
32217;DHT22;67098;51.140;4.088;2023-07-02T15:04:44;29.20;44.00
32217;DHT22;67098;51.140;4.088;2023-07-02T15:07:10;28.80;44.20
32217;DHT22;67098;51.140;4.088;2023-07-02T15:09:36;28.40;44.70
32217;DHT22;67098;51.140;4.088;2023-07-02T15:12:02;28.00;45.20
32217;DHT22;67098;51.140;4.088;2023-07-02T15:14:28;28.00;45.40
32217;DHT22;67098;51.140;4.088;2023-07-02T15:16:53;28.50;46.10
32217;DHT22;67098;51.140;4.088;2023-07-02T15:19:19;28.60;44.80
32217;DHT22;67098;51.140;4.088;2023-07-02T15:21:45;28.40;45.10
32217;DHT22;67098;51.140;4.088;2023-07-02T15:24:11;28.00;45.20
32217;DHT22;67098;51.140;4.088;2023-07-02T15:26:39;27.80;46.10
32217;DHT22;67098;51.140;4.088;2023-07-02T15:29:05;28.00;45.90
32217;DHT22;67098;51.140;4.088;2023-07-02T15:31:31;28.40;46.00